TUI4460 LEMH-EGKK
Flight info
| Callsign | TUI4460 |
|---|---|
| Flight time | N/A |
| Altitude | 34000 |
| Route | MEROS3D MEROS N853 LUMAS/N0476F400 DCT SOFFY DCT MRM DCT MTL DCT ETREK DCT MADOT DCT MOPEM DCT CACHI DCT AVLON DCT OKRIX DCT BRY DCT CLM DCT KOPOR DCT KESAX DCT KUNAV KUNAV1G |
| Aircraft | B789/H-SDE1E2E3FGHIJ2J3J4J5M1RWXY/LB1D1 |
Departure
| Time | 2026-04-11 11:52 |
|---|---|
| Airport | Menorca Airport (LEMH) |
Arrival
| Time | N/A |
|---|---|
| Airport | London Gatwick Airport (EGKK) |
| Time | Latitude | Longitude | Altitude | Speed | Heading |
|---|---|---|---|---|---|
| 2026-04-11 10:56 | 39.86044 | 4.22247 | 300 ft | 0 kts | 9° |
| 2026-04-11 11:02 | 39.86043 | 4.22247 | 300 ft | 0 kts | 9° |
| 2026-04-11 11:15 | 39.86042 | 4.22247 | 300 ft | 0 kts | 9° |
| 2026-04-11 11:29 | 39.86041 | 4.22247 | 300 ft | 0 kts | 9° |
| 2026-04-11 11:36 | 39.86041 | 4.22246 | 300 ft | 0 kts | 9° |
| 2026-04-11 11:40 | 39.86049 | 4.22250 | 300 ft | 4 kts | 21° |
| 2026-04-11 11:41 | 39.86068 | 4.22273 | 304 ft | 4 kts | 54° |
| 2026-04-11 11:41 | 39.86074 | 4.22291 | 303 ft | 0 kts | 69° |
| 2026-04-11 11:45 | 39.86076 | 4.22296 | 303 ft | 1 kts | 63° |
| 2026-04-11 11:46 | 39.86087 | 4.22309 | 301 ft | 3 kts | 31° |
| 2026-04-11 11:46 | 39.86112 | 4.22310 | 303 ft | 5 kts | 355° |
| 2026-04-11 11:46 | 39.86159 | 4.22285 | 304 ft | 9 kts | 316° |
| 2026-04-11 11:46 | 39.86184 | 4.22194 | 303 ft | 13 kts | 280° |
| 2026-04-11 11:47 | 39.86228 | 4.22098 | 303 ft | 11 kts | 354° |
| 2026-04-11 11:47 | 39.86312 | 4.22114 | 304 ft | 15 kts | 9° |
| 2026-04-11 11:47 | 39.86429 | 4.22139 | 304 ft | 19 kts | 8° |
| 2026-04-11 11:47 | 39.86575 | 4.22167 | 302 ft | 23 kts | 8° |
| 2026-04-11 11:48 | 39.86750 | 4.22199 | 303 ft | 27 kts | 8° |
| 2026-04-11 11:48 | 39.86946 | 4.22244 | 305 ft | 30 kts | 9° |
| 2026-04-11 11:48 | 39.87152 | 4.22287 | 312 ft | 30 kts | 8° |
| 2026-04-11 11:48 | 39.87352 | 4.22317 | 316 ft | 20 kts | 346° |
| 2026-04-11 11:49 | 39.87393 | 4.22228 | 317 ft | 0 kts | 278° |
| 2026-04-11 11:51 | 39.87393 | 4.22226 | 317 ft | 1 kts | 278° |
| 2026-04-11 11:51 | 39.87392 | 4.22197 | 317 ft | 5 kts | 259° |
| 2026-04-11 11:51 | 39.87376 | 4.22135 | 317 ft | 10 kts | 246° |
| 2026-04-11 11:51 | 39.87317 | 4.22087 | 317 ft | 12 kts | 187° |
| 2026-04-11 11:52 | 39.87081 | 4.22035 | 316 ft | 67 kts | 189° |
| 2026-04-11 11:52 | 39.86368 | 4.21887 | 300 ft | 138 kts | 189° |
| 2026-04-11 11:52 | 39.85259 | 4.21658 | 543 ft | 172 kts | 187° |
| 2026-04-11 11:52 | 39.84135 | 4.21474 | 1703 ft | 153 kts | 181° |
| 2026-04-11 11:53 | 39.83109 | 4.21405 | 2686 ft | 153 kts | 179° |
| 2026-04-11 11:53 | 39.81947 | 4.21134 | 3076 ft | 186 kts | 190° |
| 2026-04-11 11:53 | 39.80601 | 4.20705 | 3465 ft | 213 kts | 189° |
| 2026-04-11 11:53 | 39.79049 | 4.20308 | 3896 ft | 245 kts | 187° |
| 2026-04-11 11:54 | 39.77279 | 4.19947 | 3971 ft | 265 kts | 187° |
| 2026-04-11 11:54 | 39.75456 | 4.19915 | 3968 ft | 263 kts | 161° |
| 2026-04-11 11:54 | 39.73968 | 4.21218 | 3987 ft | 263 kts | 127° |
| 2026-04-11 11:54 | 39.73327 | 4.23417 | 3987 ft | 265 kts | 92° |
| 2026-04-11 11:55 | 39.73796 | 4.25698 | 3985 ft | 268 kts | 59° |
| 2026-04-11 11:55 | 39.74817 | 4.27722 | 3985 ft | 268 kts | 59° |
| 2026-04-11 11:55 | 39.75885 | 4.29714 | 3987 ft | 269 kts | 54° |
| 2026-04-11 11:55 | 39.77104 | 4.31565 | 3981 ft | 271 kts | 47° |
| 2026-04-11 11:56 | 39.78502 | 4.33219 | 4064 ft | 276 kts | 39° |
| 2026-04-11 11:56 | 39.80058 | 4.34604 | 5309 ft | 267 kts | 31° |
| 2026-04-11 11:56 | 39.81737 | 4.35690 | 6423 ft | 273 kts | 21° |
| 2026-04-11 11:56 | 39.83559 | 4.36442 | 7449 ft | 277 kts | 12° |
| 2026-04-11 11:57 | 39.85469 | 4.36815 | 8498 ft | 280 kts | 3° |
| 2026-04-11 11:57 | 39.87427 | 4.36780 | 9514 ft | 284 kts | 354° |
| 2026-04-11 11:57 | 39.89417 | 4.36318 | 10005 ft | 299 kts | 345° |
| 2026-04-11 11:57 | 39.91469 | 4.35304 | 9982 ft | 330 kts | 333° |
| 2026-04-11 11:58 | 39.93432 | 4.33716 | 9982 ft | 333 kts | 322° |
| 2026-04-11 11:58 | 39.95182 | 4.31698 | 9977 ft | 338 kts | 319° |
| 2026-04-11 11:58 | 39.97187 | 4.30150 | 9978 ft | 336 kts | 341° |
| 2026-04-11 11:58 | 39.99486 | 4.29673 | 9983 ft | 338 kts | 2° |
| 2026-04-11 11:59 | 40.01836 | 4.29926 | 9977 ft | 339 kts | 5° |
| 2026-04-11 11:59 | 40.04189 | 4.30256 | 10527 ft | 339 kts | 6° |
| 2026-04-11 11:59 | 40.06543 | 4.30610 | 11499 ft | 343 kts | 5° |
| 2026-04-11 11:59 | 40.08936 | 4.30940 | 12345 ft | 349 kts | 4° |
| 2026-04-11 12:00 | 40.11342 | 4.31262 | 13169 ft | 356 kts | 4° |
| 2026-04-11 12:00 | 40.13819 | 4.31603 | 14023 ft | 360 kts | 4° |
| 2026-04-11 12:00 | 40.16334 | 4.31957 | 14726 ft | 366 kts | 4° |
| 2026-04-11 12:00 | 40.18884 | 4.32314 | 15473 ft | 371 kts | 4° |
| 2026-04-11 12:01 | 40.21474 | 4.32672 | 16166 ft | 377 kts | 4° |
| 2026-04-11 12:01 | 40.24104 | 4.33036 | 16856 ft | 383 kts | 4° |
| 2026-04-11 12:01 | 40.26773 | 4.33409 | 17530 ft | 389 kts | 4° |
| 2026-04-11 12:01 | 40.29482 | 4.33787 | 18194 ft | 394 kts | 4° |
| 2026-04-11 12:02 | 40.32225 | 4.34169 | 18800 ft | 398 kts | 4° |
| 2026-04-11 12:02 | 40.34991 | 4.34556 | 19449 ft | 401 kts | 4° |
| 2026-04-11 12:02 | 40.37775 | 4.34945 | 20064 ft | 404 kts | 4° |
| 2026-04-11 12:02 | 40.40580 | 4.35337 | 20724 ft | 405 kts | 4° |
| 2026-04-11 12:03 | 40.43386 | 4.35730 | 21386 ft | 407 kts | 4° |
| 2026-04-11 12:03 | 40.45255 | 4.35992 | 21757 ft | 409 kts | 4° |
| 2026-04-11 12:03 | 40.48098 | 4.36390 | 22333 ft | 412 kts | 4° |
| 2026-04-11 12:03 | 40.50948 | 4.36873 | 22866 ft | 415 kts | 9° |
| 2026-04-11 12:04 | 40.53797 | 4.37595 | 23364 ft | 419 kts | 8° |
| 2026-04-11 12:04 | 40.56676 | 4.38257 | 23844 ft | 421 kts | 8° |
| 2026-04-11 12:04 | 40.59574 | 4.38926 | 24231 ft | 425 kts | 8° |
| 2026-04-11 12:04 | 40.62497 | 4.39636 | 24615 ft | 429 kts | 8° |
| 2026-04-11 12:05 | 40.65438 | 4.40354 | 24996 ft | 432 kts | 8° |
| 2026-04-11 12:05 | 40.68411 | 4.41063 | 25366 ft | 435 kts | 8° |
| 2026-04-11 12:05 | 40.71400 | 4.41772 | 25735 ft | 439 kts | 8° |
| 2026-04-11 12:05 | 40.74417 | 4.42497 | 26100 ft | 442 kts | 8° |
| 2026-04-11 12:06 | 40.77452 | 4.43231 | 26463 ft | 445 kts | 8° |
| 2026-04-11 12:06 | 40.80510 | 4.43966 | 26822 ft | 449 kts | 8° |
| 2026-04-11 12:06 | 40.83594 | 4.44707 | 27173 ft | 452 kts | 8° |
| 2026-04-11 12:06 | 40.86707 | 4.45456 | 27491 ft | 456 kts | 8° |
| 2026-04-11 12:07 | 40.89840 | 4.46213 | 27840 ft | 459 kts | 8° |
| 2026-04-11 12:07 | 40.92990 | 4.46975 | 28183 ft | 462 kts | 8° |
| 2026-04-11 12:07 | 40.96163 | 4.47745 | 28513 ft | 465 kts | 8° |
| 2026-04-11 12:07 | 40.99360 | 4.48521 | 28853 ft | 468 kts | 8° |
| 2026-04-11 12:08 | 41.02579 | 4.49302 | 29168 ft | 472 kts | 8° |
| 2026-04-11 12:08 | 41.05814 | 4.50089 | 29483 ft | 475 kts | 7° |
| 2026-04-11 12:08 | 41.09080 | 4.50884 | 29770 ft | 478 kts | 7° |
| 2026-04-11 12:08 | 41.12362 | 4.51681 | 30074 ft | 481 kts | 7° |
| 2026-04-11 12:09 | 41.15668 | 4.52486 | 30338 ft | 484 kts | 7° |
| 2026-04-11 12:09 | 41.18989 | 4.53296 | 30590 ft | 487 kts | 8° |
| 2026-04-11 12:09 | 41.22333 | 4.54113 | 30847 ft | 490 kts | 8° |
| 2026-04-11 12:09 | 41.25692 | 4.54934 | 31100 ft | 492 kts | 8° |
| 2026-04-11 12:10 | 41.29071 | 4.55760 | 31350 ft | 495 kts | 7° |
| 2026-04-11 12:10 | 41.32464 | 4.56591 | 31601 ft | 497 kts | 7° |
| 2026-04-11 12:10 | 41.35876 | 4.57427 | 31829 ft | 500 kts | 7° |
| 2026-04-11 12:10 | 41.39313 | 4.58270 | 32010 ft | 504 kts | 7° |
| 2026-04-11 12:11 | 41.42758 | 4.59117 | 32358 ft | 503 kts | 7° |
| 2026-04-11 12:11 | 41.46205 | 4.59965 | 32692 ft | 504 kts | 7° |
| 2026-04-11 12:11 | 41.49653 | 4.60815 | 33040 ft | 504 kts | 7° |
| 2026-04-11 12:11 | 41.53099 | 4.61663 | 33397 ft | 504 kts | 7° |
| 2026-04-11 12:12 | 41.56546 | 4.62513 | 33709 ft | 504 kts | 7° |
| 2026-04-11 12:12 | 41.60003 | 4.63367 | 33983 ft | 506 kts | 7° |
| 2026-04-11 12:12 | 41.66957 | 4.65088 | 33960 ft | 506 kts | 7° |
| 2026-04-11 12:13 | 41.73843 | 4.66863 | 33967 ft | 504 kts | 12° |
| 2026-04-11 12:13 | 41.80590 | 4.69513 | 33972 ft | 507 kts | 13° |
| 2026-04-11 12:14 | 41.87319 | 4.72147 | 33973 ft | 507 kts | 13° |
| 2026-04-11 12:14 | 41.94083 | 4.74805 | 33982 ft | 506 kts | 13° |
| 2026-04-11 12:15 | 42.00825 | 4.77463 | 33981 ft | 504 kts | 13° |
| 2026-04-11 12:15 | 42.07552 | 4.80116 | 33976 ft | 503 kts | 13° |
| 2026-04-11 12:16 | 42.14255 | 4.82770 | 33983 ft | 501 kts | 13° |
| 2026-04-11 12:16 | 42.20942 | 4.85420 | 33982 ft | 501 kts | 13° |
| 2026-04-11 12:17 | 42.27642 | 4.88083 | 33986 ft | 502 kts | 13° |
| 2026-04-11 12:17 | 42.34339 | 4.90750 | 33987 ft | 501 kts | 13° |
| 2026-04-11 12:18 | 42.41023 | 4.93418 | 33983 ft | 500 kts | 13° |
| 2026-04-11 12:19 | 42.51031 | 4.97423 | 33999 ft | 503 kts | 13° |
| 2026-04-11 12:19 | 42.57719 | 5.00109 | 33987 ft | 500 kts | 13° |
| 2026-04-11 12:20 | 42.64387 | 5.02790 | 33986 ft | 500 kts | 13° |
| 2026-04-11 12:20 | 42.71045 | 5.05475 | 33994 ft | 499 kts | 13° |
| 2026-04-11 12:21 | 42.77719 | 5.08171 | 33990 ft | 499 kts | 13° |
| 2026-04-11 12:21 | 42.84377 | 5.10868 | 33991 ft | 499 kts | 13° |
| 2026-04-11 12:22 | 42.91035 | 5.13571 | 34002 ft | 499 kts | 13° |
| 2026-04-11 12:22 | 42.97631 | 5.16254 | 33993 ft | 497 kts | 14° |
| 2026-04-11 12:23 | 43.04258 | 5.18955 | 33996 ft | 497 kts | 13° |
| 2026-04-11 12:23 | 43.10887 | 5.21650 | 33979 ft | 497 kts | 13° |
| 2026-04-11 12:24 | 43.17502 | 5.24352 | 33983 ft | 495 kts | 14° |
| 2026-04-11 12:24 | 43.24107 | 5.27051 | 33972 ft | 496 kts | 14° |
| 2026-04-11 12:25 | 43.30716 | 5.29760 | 33973 ft | 496 kts | 14° |
| 2026-04-11 12:25 | 43.37406 | 5.31462 | 33989 ft | 484 kts | 355° |
| 2026-04-11 12:25 | 43.40739 | 5.31037 | 33989 ft | 479 kts | 343° |
| 2026-04-11 12:26 | 43.43925 | 5.29821 | 33972 ft | 474 kts | 337° |
| 2026-04-11 12:26 | 43.50189 | 5.26982 | 33973 ft | 474 kts | 337° |
| 2026-04-11 12:27 | 43.56440 | 5.24112 | 33966 ft | 473 kts | 337° |
| 2026-04-11 12:27 | 43.62685 | 5.21259 | 33972 ft | 472 kts | 337° |
| 2026-04-11 12:28 | 43.68923 | 5.18390 | 33978 ft | 473 kts | 337° |
| 2026-04-11 12:28 | 43.75169 | 5.15518 | 33968 ft | 473 kts | 338° |
| 2026-04-11 12:29 | 43.81426 | 5.12633 | 33963 ft | 474 kts | 338° |
| 2026-04-11 12:29 | 43.87669 | 5.09749 | 33974 ft | 472 kts | 338° |
| 2026-04-11 12:30 | 43.93845 | 5.06888 | 33977 ft | 471 kts | 338° |
| 2026-04-11 12:30 | 44.00059 | 5.04004 | 33965 ft | 471 kts | 338° |
| 2026-04-11 12:31 | 44.06281 | 5.01109 | 33968 ft | 471 kts | 338° |
| 2026-04-11 12:31 | 44.12496 | 4.98212 | 33982 ft | 471 kts | 338° |
| 2026-04-11 12:32 | 44.18694 | 4.95317 | 33970 ft | 469 kts | 338° |
| 2026-04-11 12:32 | 44.24858 | 4.92430 | 33969 ft | 465 kts | 339° |
| 2026-04-11 12:33 | 44.30992 | 4.89550 | 33950 ft | 466 kts | 339° |
| 2026-04-11 12:33 | 44.37158 | 4.86650 | 33944 ft | 468 kts | 339° |
| 2026-04-11 12:34 | 44.43338 | 4.83737 | 33949 ft | 469 kts | 339° |
| 2026-04-11 12:34 | 44.49520 | 4.80817 | 33944 ft | 468 kts | 339° |
| 2026-04-11 12:35 | 44.55720 | 4.77990 | 33953 ft | 470 kts | 346° |
| 2026-04-11 12:35 | 44.62194 | 4.76505 | 33945 ft | 472 kts | 348° |
| 2026-04-11 12:36 | 44.68685 | 4.75071 | 33948 ft | 472 kts | 348° |
| 2026-04-11 12:36 | 44.75168 | 4.73631 | 33938 ft | 472 kts | 348° |
| 2026-04-11 12:37 | 44.81653 | 4.72189 | 33941 ft | 472 kts | 348° |
| 2026-04-11 12:37 | 44.88139 | 4.70744 | 33945 ft | 472 kts | 348° |
| 2026-04-11 12:38 | 44.94625 | 4.69295 | 33939 ft | 472 kts | 348° |
| 2026-04-11 12:38 | 45.01110 | 4.67843 | 33930 ft | 472 kts | 348° |
| 2026-04-11 12:39 | 45.07552 | 4.66396 | 33927 ft | 472 kts | 348° |
| 2026-04-11 12:39 | 45.14038 | 4.64938 | 33926 ft | 472 kts | 348° |
| 2026-04-11 12:40 | 45.20576 | 4.63463 | 33925 ft | 472 kts | 348° |
| 2026-04-11 12:40 | 45.27057 | 4.61981 | 33931 ft | 472 kts | 348° |
| 2026-04-11 12:41 | 45.33558 | 4.60495 | 33932 ft | 475 kts | 348° |
| 2026-04-11 12:41 | 45.40085 | 4.59000 | 33945 ft | 475 kts | 348° |
| 2026-04-11 12:42 | 45.46576 | 4.57508 | 33949 ft | 475 kts | 348° |
| 2026-04-11 12:42 | 45.53114 | 4.56003 | 33958 ft | 477 kts | 348° |
| 2026-04-11 12:43 | 45.62956 | 4.53730 | 33955 ft | 477 kts | 348° |
| 2026-04-11 12:43 | 45.69507 | 4.52212 | 33955 ft | 477 kts | 347° |
| 2026-04-11 12:44 | 45.76078 | 4.50686 | 33933 ft | 479 kts | 347° |
| 2026-04-11 12:44 | 45.82660 | 4.49155 | 33934 ft | 479 kts | 347° |
| 2026-04-11 12:45 | 45.89237 | 4.47621 | 33946 ft | 479 kts | 347° |
| 2026-04-11 12:45 | 45.95834 | 4.46078 | 33945 ft | 481 kts | 347° |
| 2026-04-11 12:46 | 46.02441 | 4.44530 | 33945 ft | 481 kts | 347° |
| 2026-04-11 12:46 | 46.09042 | 4.42979 | 33960 ft | 481 kts | 347° |
| 2026-04-11 12:47 | 46.15639 | 4.41425 | 33952 ft | 480 kts | 347° |
| 2026-04-11 12:47 | 46.22227 | 4.39869 | 33951 ft | 479 kts | 347° |
| 2026-04-11 12:48 | 46.28794 | 4.38273 | 33972 ft | 473 kts | 342° |
| 2026-04-11 12:48 | 46.35177 | 4.36022 | 33948 ft | 473 kts | 342° |
| 2026-04-11 12:49 | 46.41585 | 4.33799 | 33951 ft | 473 kts | 342° |
| 2026-04-11 12:49 | 46.47979 | 4.31537 | 33952 ft | 473 kts | 342° |
| 2026-04-11 12:50 | 46.53301 | 4.29673 | 33953 ft | 473 kts | 342° |
| 2026-04-11 12:50 | 46.59709 | 4.27405 | 33952 ft | 474 kts | 342° |
| 2026-04-11 12:51 | 46.66121 | 4.25141 | 33954 ft | 474 kts | 342° |
| 2026-04-11 12:51 | 46.72543 | 4.22862 | 33955 ft | 475 kts | 342° |
| 2026-04-11 12:52 | 46.78957 | 4.20583 | 33961 ft | 474 kts | 342° |
| 2026-04-11 12:52 | 46.85361 | 4.18300 | 33959 ft | 474 kts | 341° |
| 2026-04-11 12:53 | 46.91766 | 4.16013 | 33958 ft | 475 kts | 341° |
| 2026-04-11 12:53 | 46.98198 | 4.13708 | 33963 ft | 476 kts | 341° |
| 2026-04-11 12:54 | 47.04634 | 4.11399 | 33964 ft | 476 kts | 341° |
| 2026-04-11 12:54 | 47.10837 | 4.08195 | 33980 ft | 475 kts | 333° |
| 2026-04-11 12:55 | 47.16988 | 4.04588 | 33965 ft | 480 kts | 333° |
| 2026-04-11 12:55 | 47.23210 | 4.00896 | 33960 ft | 478 kts | 333° |
| 2026-04-11 12:56 | 47.29380 | 3.97238 | 33957 ft | 477 kts | 333° |
| 2026-04-11 12:56 | 47.35460 | 3.93619 | 33937 ft | 481 kts | 332° |
| 2026-04-11 12:57 | 47.41634 | 3.89938 | 33952 ft | 482 kts | 333° |
| 2026-04-11 12:57 | 47.47894 | 3.86197 | 33953 ft | 482 kts | 332° |
| 2026-04-11 12:58 | 47.54078 | 3.82489 | 33942 ft | 483 kts | 332° |
| 2026-04-11 12:58 | 47.60284 | 3.78763 | 33931 ft | 480 kts | 332° |
| 2026-04-11 12:59 | 47.66477 | 3.75032 | 33925 ft | 480 kts | 332° |
| 2026-04-11 12:59 | 47.72678 | 3.71290 | 33924 ft | 482 kts | 332° |
| 2026-04-11 13:00 | 47.78885 | 3.67534 | 33915 ft | 481 kts | 332° |
| 2026-04-11 13:00 | 47.85073 | 3.63779 | 33913 ft | 480 kts | 332° |
| 2026-04-11 13:01 | 47.94349 | 3.58133 | 33911 ft | 480 kts | 332° |
| 2026-04-11 13:02 | 48.00528 | 3.54353 | 33898 ft | 480 kts | 332° |
| 2026-04-11 13:02 | 48.06728 | 3.50535 | 33897 ft | 482 kts | 332° |
| 2026-04-11 13:03 | 48.12864 | 3.46762 | 33882 ft | 477 kts | 332° |
| 2026-04-11 13:03 | 48.19016 | 3.42953 | 33889 ft | 480 kts | 332° |
| 2026-04-11 13:04 | 48.25223 | 3.39111 | 33901 ft | 487 kts | 332° |
| 2026-04-11 13:04 | 48.31496 | 3.35216 | 33891 ft | 487 kts | 332° |
| 2026-04-11 13:05 | 48.37803 | 3.31287 | 33886 ft | 487 kts | 332° |
| 2026-04-11 13:05 | 48.44051 | 3.27368 | 33892 ft | 487 kts | 331° |
| 2026-04-11 13:06 | 48.50287 | 3.23358 | 33876 ft | 488 kts | 331° |
| 2026-04-11 13:06 | 48.56485 | 3.19418 | 33891 ft | 485 kts | 331° |
| 2026-04-11 13:07 | 48.62698 | 3.15422 | 33886 ft | 485 kts | 330° |
| 2026-04-11 13:07 | 48.68907 | 3.11438 | 33887 ft | 484 kts | 330° |
| 2026-04-11 13:08 | 48.75101 | 3.07442 | 33880 ft | 484 kts | 330° |
| 2026-04-11 13:08 | 48.81305 | 3.03433 | 33882 ft | 487 kts | 330° |
| 2026-04-11 13:09 | 48.87345 | 2.98860 | 33880 ft | 483 kts | 323° |
| 2026-04-11 13:09 | 48.93187 | 2.93783 | 33887 ft | 484 kts | 323° |
| 2026-04-11 13:10 | 48.99014 | 2.88670 | 33890 ft | 483 kts | 323° |
| 2026-04-11 13:10 | 49.04845 | 2.83551 | 33902 ft | 484 kts | 323° |
| 2026-04-11 13:11 | 49.10678 | 2.78417 | 33891 ft | 483 kts | 323° |
| 2026-04-11 13:11 | 49.16495 | 2.73278 | 33888 ft | 482 kts | 323° |
| 2026-04-11 13:12 | 49.22294 | 2.68146 | 33880 ft | 481 kts | 323° |
| 2026-04-11 13:12 | 49.28094 | 2.62993 | 33896 ft | 485 kts | 322° |
| 2026-04-11 13:13 | 49.33936 | 2.57795 | 33885 ft | 485 kts | 322° |
| 2026-04-11 13:13 | 49.39770 | 2.52586 | 33883 ft | 485 kts | 322° |
| 2026-04-11 13:14 | 49.45596 | 2.47370 | 33889 ft | 485 kts | 322° |
| 2026-04-11 13:14 | 49.51371 | 2.42066 | 33896 ft | 478 kts | 315° |
| 2026-04-11 13:15 | 49.56395 | 2.35566 | 33891 ft | 471 kts | 311° |
| 2026-04-11 13:15 | 49.61362 | 2.28960 | 33894 ft | 472 kts | 311° |
| 2026-04-11 13:16 | 49.66317 | 2.22374 | 33876 ft | 475 kts | 310° |
| 2026-04-11 13:16 | 49.68865 | 2.18965 | 32941 ft | 486 kts | 310° |
| 2026-04-11 13:16 | 49.71446 | 2.15508 | 32108 ft | 490 kts | 310° |
| 2026-04-11 13:16 | 49.73962 | 2.12180 | 31942 ft | 475 kts | 310° |
| 2026-04-11 13:17 | 49.76437 | 2.08879 | 31699 ft | 466 kts | 309° |
| 2026-04-11 13:17 | 49.78868 | 2.05589 | 31287 ft | 461 kts | 309° |
| 2026-04-11 13:17 | 49.81269 | 2.02351 | 30909 ft | 455 kts | 309° |
| 2026-04-11 13:17 | 49.83649 | 1.99164 | 30543 ft | 451 kts | 309° |
| 2026-04-11 13:18 | 49.86043 | 1.95944 | 30171 ft | 449 kts | 308° |
| 2026-04-11 13:18 | 49.88358 | 1.92812 | 29784 ft | 447 kts | 308° |
| 2026-04-11 13:18 | 49.90697 | 1.89649 | 29362 ft | 446 kts | 308° |
| 2026-04-11 13:18 | 49.93033 | 1.86495 | 28934 ft | 444 kts | 308° |
| 2026-04-11 13:19 | 49.95359 | 1.83349 | 28524 ft | 442 kts | 308° |
| 2026-04-11 13:19 | 49.97668 | 1.80218 | 28208 ft | 440 kts | 307° |
| 2026-04-11 13:19 | 49.99973 | 1.77085 | 27810 ft | 439 kts | 307° |
| 2026-04-11 13:19 | 50.02262 | 1.73974 | 27411 ft | 436 kts | 307° |
| 2026-04-11 13:20 | 50.04539 | 1.70878 | 27029 ft | 433 kts | 307° |
| 2026-04-11 13:20 | 50.06800 | 1.67795 | 26637 ft | 431 kts | 307° |
| 2026-04-11 13:20 | 50.09080 | 1.64689 | 26249 ft | 429 kts | 308° |
| 2026-04-11 13:20 | 50.11303 | 1.61688 | 25893 ft | 428 kts | 308° |
| 2026-04-11 13:21 | 50.13544 | 1.58660 | 25536 ft | 426 kts | 307° |
| 2026-04-11 13:21 | 50.15770 | 1.55634 | 25169 ft | 423 kts | 307° |
| 2026-04-11 13:21 | 50.17978 | 1.52623 | 24798 ft | 421 kts | 307° |
| 2026-04-11 13:21 | 50.20179 | 1.49626 | 24467 ft | 419 kts | 307° |
| 2026-04-11 13:22 | 50.22376 | 1.46634 | 23972 ft | 418 kts | 307° |
| 2026-04-11 13:22 | 50.24596 | 1.43583 | 22909 ft | 429 kts | 307° |
| 2026-04-11 13:22 | 50.26829 | 1.40543 | 22379 ft | 422 kts | 308° |
| 2026-04-11 13:22 | 50.29036 | 1.37542 | 21783 ft | 418 kts | 307° |
| 2026-04-11 13:23 | 50.31215 | 1.34552 | 21101 ft | 415 kts | 307° |
| 2026-04-11 13:23 | 50.33371 | 1.31580 | 20480 ft | 411 kts | 307° |
| 2026-04-11 13:23 | 50.35505 | 1.28649 | 19883 ft | 406 kts | 307° |
| 2026-04-11 13:23 | 50.37623 | 1.25742 | 19289 ft | 402 kts | 307° |
| 2026-04-11 13:24 | 50.39694 | 1.22897 | 19096 ft | 390 kts | 307° |
| 2026-04-11 13:24 | 50.41721 | 1.20099 | 19112 ft | 390 kts | 306° |
| 2026-04-11 13:24 | 50.43758 | 1.17260 | 19099 ft | 391 kts | 307° |
| 2026-04-11 13:24 | 50.45790 | 1.14462 | 18799 ft | 388 kts | 307° |
| 2026-04-11 13:25 | 50.47815 | 1.11669 | 18362 ft | 387 kts | 307° |
| 2026-04-11 13:25 | 50.49823 | 1.08886 | 17957 ft | 383 kts | 307° |
| 2026-04-11 13:25 | 50.51786 | 1.06092 | 17510 ft | 374 kts | 302° |
| 2026-04-11 13:25 | 50.53525 | 1.03109 | 17029 ft | 370 kts | 301° |
| 2026-04-11 13:26 | 50.55278 | 1.00177 | 16642 ft | 367 kts | 301° |
| 2026-04-11 13:26 | 50.57027 | 0.97270 | 16225 ft | 364 kts | 301° |
| 2026-04-11 13:26 | 50.58744 | 0.94371 | 15900 ft | 359 kts | 300° |
| 2026-04-11 13:26 | 50.60429 | 0.91516 | 15904 ft | 355 kts | 300° |
| 2026-04-11 13:27 | 50.62116 | 0.88639 | 15895 ft | 360 kts | 300° |
| 2026-04-11 13:27 | 50.63824 | 0.85751 | 15894 ft | 360 kts | 300° |
| 2026-04-11 13:27 | 50.65533 | 0.82868 | 15883 ft | 362 kts | 300° |
| 2026-04-11 13:27 | 50.67243 | 0.79961 | 15887 ft | 360 kts | 299° |
| 2026-04-11 13:28 | 50.68816 | 0.76953 | 15897 ft | 355 kts | 296° |
| 2026-04-11 13:28 | 50.70363 | 0.73904 | 15886 ft | 356 kts | 296° |
| 2026-04-11 13:28 | 50.71906 | 0.70905 | 15707 ft | 346 kts | 296° |
| 2026-04-11 13:28 | 50.73433 | 0.67915 | 14896 ft | 351 kts | 296° |
| 2026-04-11 13:29 | 50.74935 | 0.64980 | 14653 ft | 339 kts | 296° |
| 2026-04-11 13:29 | 50.76416 | 0.62062 | 14117 ft | 339 kts | 296° |
| 2026-04-11 13:29 | 50.77879 | 0.59177 | 13601 ft | 335 kts | 296° |
| 2026-04-11 13:29 | 50.79331 | 0.56319 | 12941 ft | 333 kts | 297° |
| 2026-04-11 13:30 | 50.80776 | 0.53473 | 12300 ft | 331 kts | 297° |
| 2026-04-11 13:30 | 50.82212 | 0.50641 | 11668 ft | 328 kts | 298° |
| 2026-04-11 13:30 | 50.83635 | 0.47841 | 11022 ft | 324 kts | 297° |
| 2026-04-11 13:30 | 50.84943 | 0.44978 | 10455 ft | 319 kts | 297° |
| 2026-04-11 13:31 | 50.86270 | 0.42165 | 9834 ft | 318 kts | 301° |
| 2026-04-11 13:31 | 50.87668 | 0.39495 | 9594 ft | 310 kts | 303° |
| 2026-04-11 13:31 | 50.89010 | 0.36934 | 9566 ft | 294 kts | 301° |
| 2026-04-11 13:31 | 50.90236 | 0.34498 | 9534 ft | 273 kts | 300° |
| 2026-04-11 13:32 | 50.91375 | 0.32210 | 9486 ft | 256 kts | 300° |
| 2026-04-11 13:32 | 50.92460 | 0.30051 | 9219 ft | 248 kts | 300° |
| 2026-04-11 13:32 | 50.93533 | 0.27912 | 8810 ft | 247 kts | 300° |
| 2026-04-11 13:32 | 50.94597 | 0.25800 | 8423 ft | 244 kts | 300° |
| 2026-04-11 13:33 | 50.95655 | 0.23700 | 8052 ft | 242 kts | 301° |
| 2026-04-11 13:33 | 50.96698 | 0.21626 | 7671 ft | 239 kts | 301° |
| 2026-04-11 13:33 | 50.97729 | 0.19573 | 7303 ft | 237 kts | 301° |
| 2026-04-11 13:33 | 50.98749 | 0.17538 | 6935 ft | 234 kts | 301° |
| 2026-04-11 13:34 | 50.99741 | 0.15509 | 6561 ft | 232 kts | 302° |
| 2026-04-11 13:34 | 51.00762 | 0.13479 | 5897 ft | 240 kts | 302° |
| 2026-04-11 13:34 | 51.01442 | 0.12105 | 5620 ft | 237 kts | 302° |
| 2026-04-11 13:34 | 51.02568 | 0.10187 | 5043 ft | 246 kts | 322° |
| 2026-04-11 13:35 | 51.04223 | 0.09298 | 4561 ft | 255 kts | 341° |
| 2026-04-11 13:35 | 51.05926 | 0.08851 | 4569 ft | 242 kts | 348° |
| 2026-04-11 13:35 | 51.07594 | 0.08772 | 4345 ft | 241 kts | 353° |
| 2026-04-11 13:35 | 51.09267 | 0.08801 | 4022 ft | 240 kts | 354° |
| 2026-04-11 13:36 | 51.10941 | 0.08845 | 3705 ft | 240 kts | 354° |
| 2026-04-11 13:36 | 51.12607 | 0.08893 | 3448 ft | 236 kts | 354° |
| 2026-04-11 13:36 | 51.14178 | 0.08951 | 3515 ft | 216 kts | 354° |
| 2026-04-11 13:36 | 51.15614 | 0.09009 | 3515 ft | 197 kts | 353° |
| 2026-04-11 13:37 | 51.16967 | 0.08948 | 3168 ft | 194 kts | 346° |
| 2026-04-11 13:37 | 51.18205 | 0.08320 | 2744 ft | 182 kts | 316° |
| 2026-04-11 13:37 | 51.18743 | 0.06722 | 2462 ft | 155 kts | 265° |
| 2026-04-11 13:37 | 51.18313 | 0.05344 | 2266 ft | 135 kts | 231° |
| 2026-04-11 13:38 | 51.17971 | 0.04015 | 1769 ft | 131 kts | 266° |
| 2026-04-11 13:38 | 51.17995 | 0.02694 | 1789 ft | 119 kts | 252° |
| 2026-04-11 13:38 | 51.17417 | 0.01668 | 1877 ft | 123 kts | 225° |
| 2026-04-11 13:38 | 51.17137 | 0.00440 | 1880 ft | 133 kts | 273° |
| 2026-04-11 13:39 | 51.17459 | -0.00951 | 2156 ft | 131 kts | 277° |
| 2026-04-11 13:39 | 51.17150 | -0.02214 | 2135 ft | 128 kts | 229° |
| 2026-04-11 13:39 | 51.16641 | -0.03374 | 1927 ft | 127 kts | 257° |